createdAt,value
2022-10-22T00:01:06.962Z,100.00
2022-10-22T00:03:33.864Z,100.00
2022-10-22T00:06:00.578Z,100.00
2022-10-22T00:08:27.394Z,100.00
2022-10-22T00:10:54.234Z,100.00
2022-10-22T00:13:24.140Z,100.00
2022-10-22T00:15:50.927Z,100.00
2022-10-22T00:18:17.581Z,100.00
2022-10-22T00:20:44.289Z,100.00
2022-10-22T00:23:10.972Z,100.00
2022-10-22T00:25:37.700Z,100.00
2022-10-22T00:28:04.496Z,100.00
2022-10-22T00:30:31.344Z,100.00
2022-10-22T00:32:58.050Z,100.00
2022-10-22T00:35:24.720Z,100.00
2022-10-22T00:37:51.462Z,100.00
2022-10-22T00:40:18.317Z,100.00
2022-10-22T00:42:45.061Z,100.00
2022-10-22T00:45:11.688Z,100.00
2022-10-22T00:47:59.403Z,100.00
2022-10-22T00:50:40.132Z,100.00
2022-10-22T00:53:10.978Z,100.00
2022-10-22T00:55:39.191Z,100.00
2022-10-22T00:58:06.240Z,100.00
2022-10-22T01:00:33.257Z,100.00
2022-10-22T01:03:00.536Z,100.00
2022-10-22T01:05:33.214Z,100.00
2022-10-22T01:07:59.918Z,100.00
2022-10-22T01:10:52.422Z,100.00
2022-10-22T01:13:46.887Z,100.00
2022-10-22T01:16:35.053Z,100.00
2022-10-22T01:19:27.817Z,100.00
2022-10-22T01:22:05.281Z,100.00
2022-10-22T01:24:48.886Z,100.00
2022-10-22T01:27:34.455Z,100.00
2022-10-22T01:30:09.396Z,100.00
2022-10-22T01:32:48.444Z,100.00
2022-10-22T01:35:21.898Z,100.00
2022-10-22T01:37:53.565Z,100.00
2022-10-22T01:40:21.981Z,100.00
2022-10-22T01:43:10.489Z,100.00
2022-10-22T01:45:42.664Z,100.00
2022-10-22T01:48:46.856Z,100.00
2022-10-22T01:51:13.629Z,100.00
2022-10-22T01:54:04.836Z,100.00
2022-10-22T01:57:04.450Z,100.00
2022-10-22T01:59:45.066Z,100.00
2022-10-22T02:02:49.672Z,100.00
2022-10-22T02:05:25.385Z,100.00
2022-10-22T02:08:03.510Z,100.00
2022-10-22T02:10:31.217Z,100.00
2022-10-22T02:13:00.035Z,100.00
2022-10-22T02:15:30.241Z,100.00
2022-10-22T02:17:58.974Z,100.00
2022-10-22T02:20:33.122Z,100.00
2022-10-22T02:23:01.937Z,100.00
2022-10-22T02:25:32.514Z,100.00
2022-10-22T02:28:05.241Z,100.00
2022-10-22T02:30:34.168Z,100.00
2022-10-22T02:33:04.604Z,100.00
2022-10-22T02:35:32.041Z,100.00
2022-10-22T02:38:00.134Z,100.00
2022-10-22T02:40:28.913Z,100.00
2022-10-22T02:42:55.718Z,100.00
2022-10-22T02:45:23.193Z,100.00
2022-10-22T02:47:50.212Z,100.00
2022-10-22T02:50:17.308Z,100.00
2022-10-22T02:52:44.289Z,100.00
2022-10-22T02:55:11.022Z,100.00
2022-10-22T02:57:38.003Z,100.00
2022-10-22T03:00:06.795Z,100.00
2022-10-22T03:02:33.678Z,100.00
2022-10-22T03:05:00.681Z,100.00
2022-10-22T03:07:27.500Z,100.00
2022-10-22T03:09:54.173Z,100.00
2022-10-22T03:12:21.094Z,100.00
2022-10-22T03:14:47.842Z,100.00
2022-10-22T03:17:14.632Z,100.00
2022-10-22T03:19:42.251Z,100.00
2022-10-22T03:22:18.989Z,100.00
2022-10-22T03:24:47.786Z,100.00
2022-10-22T03:27:16.794Z,100.00
2022-10-22T03:29:44.267Z,100.00
2022-10-22T03:32:11.001Z,100.00
2022-10-22T03:34:37.838Z,100.00
2022-10-22T03:37:04.714Z,100.00
2022-10-22T03:39:34.603Z,100.00
2022-10-22T03:42:02.231Z,100.00
2022-10-22T03:44:29.683Z,100.00
2022-10-22T03:46:58.789Z,100.00
2022-10-22T03:49:29.037Z,100.00
2022-10-22T03:51:55.818Z,100.00
2022-10-22T03:54:22.701Z,100.00
2022-10-22T03:56:49.370Z,100.00
2022-10-22T03:59:16.286Z,100.00
2022-10-22T04:01:51.174Z,100.00
2022-10-22T04:04:17.857Z,100.00
2022-10-22T04:06:44.566Z,100.00
2022-10-22T04:09:11.331Z,100.00
2022-10-22T04:11:38.057Z,100.00
2022-10-22T04:14:04.918Z,100.00
2022-10-22T04:16:32.950Z,100.00
2022-10-22T04:18:59.985Z,100.00
2022-10-22T04:21:26.849Z,100.00
2022-10-22T04:23:53.920Z,100.00
2022-10-22T04:26:21.228Z,100.00
2022-10-22T04:28:49.909Z,100.00
2022-10-22T04:31:20.417Z,100.00
2022-10-22T04:33:47.691Z,100.00
2022-10-22T04:36:17.693Z,100.00
2022-10-22T04:38:46.685Z,100.00
2022-10-22T04:41:16.315Z,100.00
2022-10-22T04:43:43.848Z,100.00
2022-10-22T04:46:11.802Z,100.00
2022-10-22T04:48:40.465Z,100.00
2022-10-22T04:51:09.428Z,100.00
2022-10-22T04:53:37.065Z,100.00
2022-10-22T04:56:20.673Z,100.00
2022-10-22T04:59:07.339Z,100.00
2022-10-22T05:01:43.228Z,100.00
2022-10-22T05:04:16.694Z,100.00
2022-10-22T05:06:44.027Z,100.00
2022-10-22T05:09:17.117Z,100.00
2022-10-22T05:11:48.396Z,100.00
2022-10-22T05:14:23.534Z,100.00
2022-10-22T05:16:51.702Z,100.00
2022-10-22T05:19:24.197Z,100.00
2022-10-22T05:21:56.401Z,100.00
2022-10-22T05:24:23.502Z,100.00
2022-10-22T05:26:51.356Z,100.00
2022-10-22T05:29:18.345Z,100.00
2022-10-22T05:31:45.111Z,100.00
2022-10-22T05:34:12.467Z,100.00
2022-10-22T05:36:39.408Z,100.00
2022-10-22T05:39:06.218Z,100.00
2022-10-22T05:41:34.232Z,100.00
2022-10-22T05:44:01.200Z,100.00
2022-10-22T05:46:30.534Z,100.00
2022-10-22T05:49:01.213Z,100.00
2022-10-22T05:51:30.457Z,100.00
2022-10-22T05:53:59.671Z,100.00
2022-10-22T05:56:28.407Z,100.00
2022-10-22T05:58:56.525Z,100.00
2022-10-22T06:01:29.413Z,100.00
2022-10-22T06:03:59.426Z,100.00
2022-10-22T06:06:39.540Z,100.00
2022-10-22T06:09:27.999Z,100.00
2022-10-22T06:11:56.395Z,100.00
2022-10-22T06:14:24.234Z,100.00
2022-10-22T06:16:51.883Z,100.00
2022-10-22T06:19:20.785Z,100.00
2022-10-22T06:21:48.294Z,100.00
2022-10-22T06:24:15.461Z,100.00
2022-10-22T06:26:42.774Z,100.00
2022-10-22T06:29:10.048Z,100.00
2022-10-22T06:31:37.218Z,100.00
2022-10-22T06:34:10.696Z,100.00
2022-10-22T06:36:37.598Z,100.00
2022-10-22T06:39:05.581Z,100.00
2022-10-22T06:41:32.548Z,100.00
2022-10-22T06:44:00.210Z,100.00
2022-10-22T06:46:27.236Z,100.00
2022-10-22T06:48:59.490Z,100.00
2022-10-22T06:51:27.415Z,100.00
2022-10-22T06:53:55.576Z,100.00
2022-10-22T06:56:24.941Z,100.00
2022-10-22T06:58:53.365Z,100.00
2022-10-22T07:01:22.504Z,100.00
2022-10-22T07:03:51.359Z,100.00
2022-10-22T07:06:18.475Z,100.00
2022-10-22T07:08:45.204Z,100.00
2022-10-22T07:11:17.374Z,100.00
2022-10-22T07:13:44.880Z,100.00
2022-10-22T07:16:12.564Z,100.00
2022-10-22T07:18:40.659Z,100.00
2022-10-22T07:21:09.429Z,100.00
2022-10-22T07:23:36.886Z,100.00
2022-10-22T07:26:07.270Z,100.00
2022-10-22T07:28:35.032Z,100.00
2022-10-22T07:31:01.815Z,100.00
2022-10-22T07:33:28.775Z,100.00
2022-10-22T07:36:02.776Z,100.00
2022-10-22T07:38:29.888Z,100.00
2022-10-22T07:40:56.786Z,100.00
2022-10-22T07:43:24.151Z,100.00
2022-10-22T07:45:50.987Z,100.00
2022-10-22T07:48:18.198Z,100.00
2022-10-22T07:53:11.492Z,100.00
2022-10-22T07:55:38.361Z,100.00
2022-10-22T07:58:05.089Z,91.00
2022-10-22T08:00:31.968Z,86.78
2022-10-22T08:02:59.056Z,89.26
2022-10-22T08:05:25.994Z,90.16
2022-10-22T08:07:52.950Z,98.89
2022-10-22T08:10:19.690Z,94.96
2022-10-22T08:12:46.404Z,91.41
2022-10-22T08:15:13.223Z,90.57
2022-10-22T08:17:40.506Z,85.01
2022-10-22T08:20:08.388Z,83.95
2022-10-22T08:22:36.036Z,79.10
2022-10-22T08:25:02.709Z,75.89
2022-10-22T08:27:29.384Z,70.49
2022-10-22T08:29:56.137Z,67.62
2022-10-22T08:32:22.977Z,66.98
2022-10-22T08:34:49.991Z,68.98
2022-10-22T08:37:18.915Z,67.64
2022-10-22T08:39:45.774Z,66.60
2022-10-22T08:42:21.536Z,64.48
2022-10-22T08:44:56.561Z,64.54
2022-10-22T08:47:40.438Z,64.12
2022-10-22T08:50:12.296Z,64.35
2022-10-22T08:52:44.773Z,63.74
2022-10-22T08:55:16.073Z,64.87
2022-10-22T08:58:06.155Z,64.94
2022-10-22T09:00:46.187Z,63.09
2022-10-22T09:03:34.780Z,61.58
2022-10-22T09:06:22.730Z,59.91
2022-10-22T09:08:50.544Z,61.23
2022-10-22T09:11:23.829Z,62.73
2022-10-22T09:13:54.075Z,63.25
2022-10-22T09:16:25.305Z,64.58
2022-10-22T09:19:04.680Z,62.72
2022-10-22T09:21:53.968Z,62.32
2022-10-22T09:24:38.655Z,62.69
2022-10-22T09:27:29.460Z,61.67
2022-10-22T09:29:56.738Z,61.44
2022-10-22T09:32:23.691Z,59.37
2022-10-22T09:34:55.011Z,59.23
2022-10-22T09:37:27.679Z,58.03
2022-10-22T09:39:56.810Z,57.60
2022-10-22T09:42:23.801Z,56.64
2022-10-22T09:44:59.778Z,56.37
2022-10-22T09:47:43.456Z,56.73
2022-10-22T09:50:31.277Z,56.44
2022-10-22T09:53:01.579Z,56.33
2022-10-22T09:55:29.387Z,57.87
2022-10-22T09:57:59.327Z,58.08
2022-10-22T10:00:27.225Z,58.12
2022-10-22T10:02:56.635Z,58.11
2022-10-22T10:05:35.115Z,57.81
2022-10-22T10:08:15.942Z,56.98
2022-10-22T10:11:05.936Z,56.55
2022-10-22T10:13:46.537Z,55.19
2022-10-22T10:16:41.545Z,56.03
2022-10-22T10:19:27.246Z,57.11
2022-10-22T10:21:59.824Z,57.49
2022-10-22T10:24:55.015Z,56.47
2022-10-22T10:27:35.375Z,54.92
2022-10-22T10:30:11.074Z,55.57
2022-10-22T10:33:13.025Z,54.98
2022-10-22T10:35:39.862Z,53.30
2022-10-22T10:38:17.036Z,52.09
2022-10-22T10:41:19.345Z,51.91
2022-10-22T10:44:27.842Z,52.61
2022-10-22T10:47:03.584Z,52.81
2022-10-22T10:49:33.656Z,51.38
2022-10-22T10:52:20.468Z,51.47
2022-10-22T10:55:01.627Z,51.12
2022-10-22T10:58:02.476Z,50.55
2022-10-22T11:00:40.825Z,49.57
2022-10-22T11:03:31.564Z,49.63
2022-10-22T11:06:00.387Z,49.93
2022-10-22T11:08:36.049Z,49.76
2022-10-22T11:11:17.765Z,49.22
2022-10-22T11:13:47.620Z,49.67
2022-10-22T11:16:49.027Z,49.85
2022-10-22T11:19:49.676Z,50.48
2022-10-22T11:23:13.112Z,50.70
2022-10-22T11:25:40.767Z,51.14
2022-10-22T11:28:22.266Z,51.21
2022-10-22T11:31:02.945Z,50.17
2022-10-22T11:33:39.663Z,50.04
2022-10-22T11:36:08.476Z,49.52
2022-10-22T11:38:36.550Z,48.57
2022-10-22T11:41:15.984Z,48.99
2022-10-22T11:44:07.501Z,48.53
2022-10-22T11:47:09.555Z,47.82
2022-10-22T11:49:55.656Z,46.79
2022-10-22T11:52:33.034Z,46.88
2022-10-22T11:55:23.792Z,46.21
2022-10-22T11:57:50.712Z,46.63
2022-10-22T12:00:48.121Z,45.85
2022-10-22T12:03:48.048Z,46.65
2022-10-22T12:06:19.851Z,46.39
2022-10-22T12:08:49.783Z,46.67
2022-10-22T12:11:19.654Z,46.70
2022-10-22T12:14:19.054Z,46.81
2022-10-22T12:16:58.110Z,47.15
2022-10-22T12:19:39.930Z,46.75
2022-10-22T12:22:06.752Z,46.05
2022-10-22T12:24:44.717Z,45.74
2022-10-22T12:27:27.883Z,45.43
2022-10-22T12:29:59.483Z,45.81
2022-10-22T12:32:38.306Z,46.00
2022-10-22T12:35:07.970Z,45.73
2022-10-22T12:37:38.620Z,46.05
2022-10-22T12:40:45.804Z,45.98
2022-10-22T12:43:16.921Z,46.04
2022-10-22T12:45:46.232Z,45.95
2022-10-22T12:48:21.895Z,45.85
2022-10-22T12:50:54.641Z,46.38
2022-10-22T12:53:27.152Z,46.10
2022-10-22T12:55:55.926Z,46.53
2022-10-22T12:58:27.489Z,45.82
2022-10-22T13:00:57.721Z,45.92
2022-10-22T13:03:50.974Z,46.22
2022-10-22T13:06:20.814Z,46.63
2022-10-22T13:08:59.774Z,46.92
2022-10-22T13:12:04.914Z,47.19
2022-10-22T13:14:34.341Z,47.92
2022-10-22T13:17:17.429Z,48.43
2022-10-22T13:19:53.316Z,49.17
2022-10-22T13:22:38.109Z,49.58
2022-10-22T13:25:26.335Z,50.00
2022-10-22T13:27:56.915Z,50.22
2022-10-22T13:30:28.434Z,49.93
2022-10-22T13:33:05.338Z,50.04
2022-10-22T13:35:36.009Z,50.22
2022-10-22T13:38:03.383Z,50.13
2022-10-22T13:40:30.028Z,50.77
2022-10-22T13:42:56.869Z,50.79
2022-10-22T13:45:23.627Z,50.85
2022-10-22T13:47:53.700Z,50.69
2022-10-22T13:50:21.722Z,51.20
2022-10-22T13:52:53.359Z,51.04
2022-10-22T13:55:29.164Z,49.86
2022-10-22T13:58:11.116Z,50.72
2022-10-22T14:00:46.398Z,50.16
2022-10-22T14:03:16.382Z,50.50
2022-10-22T14:05:43.555Z,50.09
2022-10-22T14:08:16.130Z,50.18
2022-10-22T14:10:44.038Z,49.83
2022-10-22T14:13:11.797Z,50.52
2022-10-22T14:15:38.765Z,50.44
2022-10-22T14:18:07.522Z,50.17
2022-10-22T14:20:37.583Z,50.15
2022-10-22T14:25:52.012Z,49.72
2022-10-22T14:28:19.121Z,50.60
2022-10-22T14:30:48.716Z,50.19
2022-10-22T14:33:15.449Z,49.87
2022-10-22T14:35:42.295Z,50.50
2022-10-22T14:38:12.075Z,50.86
2022-10-22T14:40:42.754Z,51.11
2022-10-22T14:43:22.858Z,51.25
2022-10-22T14:45:50.212Z,51.62
2022-10-22T14:50:45.484Z,51.33
2022-10-22T14:53:13.754Z,51.48
2022-10-22T14:55:41.990Z,51.91
2022-10-22T14:58:09.325Z,51.70
2022-10-22T15:00:39.169Z,51.60
2022-10-22T15:03:06.013Z,52.06
2022-10-22T15:05:33.009Z,52.56
2022-10-22T15:08:00.900Z,52.65
2022-10-22T15:10:27.753Z,53.47
2022-10-22T15:12:54.526Z,53.44
2022-10-22T15:15:29.554Z,54.26
2022-10-22T15:18:02.934Z,53.95
2022-10-22T15:20:29.806Z,54.60
2022-10-22T15:22:57.926Z,53.92
2022-10-22T15:25:27.373Z,53.89
2022-10-22T15:27:58.510Z,53.86
2022-10-22T15:30:34.422Z,54.54
2022-10-22T15:33:02.076Z,54.90
2022-10-22T15:35:28.912Z,54.85
2022-10-22T15:37:55.859Z,54.67
2022-10-22T15:40:22.571Z,54.71
2022-10-22T15:42:49.229Z,54.38
2022-10-22T15:45:16.289Z,54.19
2022-10-22T15:47:48.284Z,54.46
2022-10-22T15:50:15.324Z,54.87
2022-10-22T15:52:42.126Z,54.37
2022-10-22T15:55:10.796Z,54.67
2022-10-22T15:57:39.403Z,55.16
2022-10-22T16:00:08.329Z,55.58
2022-10-22T16:02:35.045Z,55.55
2022-10-22T16:05:01.967Z,55.75
2022-10-22T16:07:29.901Z,56.06
2022-10-22T16:09:58.485Z,56.31
2022-10-22T16:12:25.275Z,56.32
2022-10-22T16:14:52.817Z,56.52
2022-10-22T16:17:19.740Z,56.66
2022-10-22T16:19:48.236Z,56.92
2022-10-22T16:22:15.810Z,57.11
2022-10-22T16:24:43.023Z,56.76
2022-10-22T16:27:10.602Z,57.19
2022-10-22T16:29:39.106Z,57.20
2022-10-22T16:32:06.311Z,57.13
2022-10-22T16:34:33.354Z,57.34
2022-10-22T16:37:00.357Z,57.69
2022-10-22T16:39:27.146Z,57.98
2022-10-22T16:41:53.899Z,58.14
2022-10-22T16:44:21.114Z,58.10
2022-10-22T16:46:47.868Z,58.15
2022-10-22T16:49:15.804Z,58.68
2022-10-22T16:51:42.746Z,58.69
2022-10-22T16:54:12.582Z,58.83
2022-10-22T16:56:39.846Z,58.69
2022-10-22T16:59:06.627Z,58.83
2022-10-22T17:01:36.858Z,58.65
2022-10-22T17:04:07.414Z,58.75
2022-10-22T17:06:34.130Z,58.83
2022-10-22T17:09:00.998Z,58.99
2022-10-22T17:11:30.328Z,59.27
2022-10-22T17:13:57.199Z,58.99
2022-10-22T17:16:25.027Z,59.51
2022-10-22T17:18:53.748Z,59.58
2022-10-22T17:21:21.759Z,59.62
2022-10-22T17:23:48.672Z,59.94
2022-10-22T17:26:20.955Z,60.41
2022-10-22T17:28:48.739Z,60.29
2022-10-22T17:31:20.467Z,60.06
2022-10-22T17:33:48.697Z,60.55
2022-10-22T17:36:17.311Z,60.13
2022-10-22T17:38:51.075Z,60.21
2022-10-22T17:41:21.812Z,60.68
2022-10-22T17:43:49.074Z,61.04
2022-10-22T17:46:21.845Z,60.96
2022-10-22T17:48:56.093Z,61.33
2022-10-22T17:51:23.778Z,61.74
2022-10-22T17:53:52.096Z,61.76
2022-10-22T17:56:24.580Z,61.97
2022-10-22T17:58:52.127Z,61.78
2022-10-22T18:01:31.645Z,62.20
2022-10-22T18:04:08.145Z,62.29
2022-10-22T18:06:35.780Z,62.34
2022-10-22T18:09:11.517Z,62.47
2022-10-22T18:11:40.741Z,62.57
2022-10-22T18:14:08.345Z,62.82
2022-10-22T18:16:35.341Z,62.80
2022-10-22T18:19:02.090Z,63.35
2022-10-22T18:21:30.259Z,64.16
2022-10-22T18:23:59.659Z,64.42
2022-10-22T18:26:27.111Z,64.51
2022-10-22T18:28:54.628Z,64.43
2022-10-22T18:31:23.527Z,64.58
2022-10-22T18:33:50.897Z,64.70
2022-10-22T18:36:20.439Z,64.32
2022-10-22T18:38:56.054Z,64.54
2022-10-22T18:41:23.055Z,64.16
2022-10-22T18:43:57.174Z,64.35
2022-10-22T18:46:24.519Z,64.18
2022-10-22T18:48:55.641Z,64.23
2022-10-22T18:51:24.314Z,64.50
2022-10-22T18:54:04.730Z,64.35
2022-10-22T18:56:32.574Z,63.96
2022-10-22T18:58:59.297Z,64.06
2022-10-22T19:01:29.485Z,64.19
2022-10-22T19:03:57.334Z,64.00
2022-10-22T19:06:30.557Z,63.63
2022-10-22T19:09:00.309Z,63.41
2022-10-22T19:11:27.635Z,63.02
2022-10-22T19:13:54.537Z,62.92
2022-10-22T19:16:27.031Z,62.81
2022-10-22T19:18:59.682Z,62.58
2022-10-22T19:21:26.589Z,62.08
2022-10-22T19:24:00.916Z,62.09
2022-10-22T19:26:29.212Z,61.89
2022-10-22T19:28:57.079Z,61.92
2022-10-22T19:31:25.268Z,62.03
2022-10-22T19:33:54.710Z,62.24
2022-10-22T19:36:24.524Z,62.08
2022-10-22T19:38:51.887Z,61.61
2022-10-22T19:41:20.208Z,61.55
2022-10-22T19:43:50.085Z,61.44
2022-10-22T19:46:17.996Z,61.12
2022-10-22T19:51:17.988Z,61.97
2022-10-22T19:53:45.122Z,62.76
2022-10-22T19:56:12.540Z,62.84
2022-10-22T19:58:39.697Z,63.29
2022-10-22T20:01:11.317Z,63.28
2022-10-22T20:03:38.884Z,63.00
2022-10-22T20:06:07.715Z,63.04
2022-10-22T20:08:38.493Z,62.18
2022-10-22T20:11:07.819Z,61.58
2022-10-22T20:13:35.453Z,60.94
2022-10-22T20:16:02.278Z,60.25
2022-10-22T20:18:29.055Z,60.52
2022-10-22T20:20:55.807Z,60.45
2022-10-22T20:23:22.616Z,60.61
2022-10-22T20:25:49.450Z,60.30
2022-10-22T20:28:17.022Z,60.64
2022-10-22T20:30:45.300Z,60.49
2022-10-22T20:33:12.136Z,60.39
2022-10-22T20:35:39.533Z,60.25
2022-10-22T20:38:07.599Z,60.30
2022-10-22T20:40:36.409Z,60.80
2022-10-22T20:43:03.113Z,60.85
2022-10-22T20:45:29.950Z,60.93
2022-10-22T20:48:02.758Z,60.96
2022-10-22T20:50:32.137Z,60.98
2022-10-22T20:52:59.620Z,61.30
2022-10-22T20:55:27.614Z,61.78
2022-10-22T20:57:54.361Z,61.57
2022-10-22T21:00:21.483Z,61.24
2022-10-22T21:02:48.170Z,62.37
2022-10-22T21:05:14.930Z,63.12
2022-10-22T21:07:42.035Z,61.63
2022-10-22T21:10:09.218Z,62.42
2022-10-22T21:12:36.149Z,62.96
2022-10-22T21:15:03.030Z,62.61
2022-10-22T21:17:29.757Z,63.10
2022-10-22T21:19:56.504Z,63.16
2022-10-22T21:22:23.275Z,63.59
2022-10-22T21:24:49.957Z,64.20
2022-10-22T21:27:16.621Z,64.81
2022-10-22T21:29:43.306Z,65.22
2022-10-22T21:32:10.010Z,65.17
2022-10-22T21:34:38.886Z,64.75
2022-10-22T21:37:06.009Z,64.53
2022-10-22T21:39:32.698Z,63.62
2022-10-22T21:41:59.458Z,63.25
2022-10-22T21:44:26.225Z,62.71
2022-10-22T21:46:52.982Z,62.34
2022-10-22T21:49:19.783Z,62.34
2022-10-22T21:51:46.829Z,61.99
2022-10-22T21:54:13.605Z,61.90
2022-10-22T21:56:41.477Z,62.16
2022-10-22T21:59:08.207Z,62.72
2022-10-22T22:01:35.811Z,63.41
2022-10-22T22:04:03.214Z,64.01
2022-10-22T22:06:33.467Z,64.46
2022-10-22T22:09:01.862Z,65.61
2022-10-22T22:11:29.512Z,66.52
2022-10-22T22:13:58.251Z,67.36
2022-10-22T22:16:29.453Z,68.77
2022-10-22T22:18:58.880Z,69.55
2022-10-22T22:21:27.186Z,70.96
2022-10-22T22:23:54.123Z,71.56
2022-10-22T22:26:26.691Z,72.17
2022-10-22T22:28:57.375Z,72.32
2022-10-22T22:31:27.598Z,72.98
2022-10-22T22:34:14.014Z,73.54
2022-10-22T22:36:43.420Z,74.27
2022-10-22T22:39:16.273Z,74.63
2022-10-22T22:41:43.425Z,75.76
2022-10-22T22:44:10.541Z,76.58
2022-10-22T22:46:37.497Z,77.44
2022-10-22T22:49:04.461Z,78.94
2022-10-22T22:51:31.429Z,79.66
2022-10-22T22:54:00.213Z,82.19
2022-10-22T22:56:29.418Z,83.82
2022-10-22T22:58:56.820Z,85.71
2022-10-22T23:01:25.119Z,88.95
2022-10-22T23:03:56.802Z,91.01
2022-10-22T23:06:25.492Z,92.88
2022-10-22T23:08:53.739Z,92.69
2022-10-22T23:11:22.000Z,94.13
2022-10-22T23:13:56.941Z,95.30
2022-10-22T23:16:26.016Z,95.86
2022-10-22T23:18:54.974Z,95.86
2022-10-22T23:21:34.139Z,99.19
2022-10-22T23:24:03.675Z,100.00
2022-10-22T23:26:40.017Z,100.00
2022-10-22T23:29:15.978Z,100.00
2022-10-22T23:31:44.613Z,100.00
2022-10-22T23:34:13.934Z,100.00
2022-10-22T23:36:40.682Z,100.00
2022-10-22T23:39:09.899Z,100.00
2022-10-22T23:41:36.935Z,100.00
2022-10-22T23:44:04.695Z,100.00
2022-10-22T23:46:32.809Z,100.00
2022-10-22T23:49:00.766Z,100.00
2022-10-22T23:51:27.906Z,100.00
2022-10-22T23:53:56.947Z,100.00
2022-10-22T23:56:24.178Z,100.00
2022-10-22T23:58:52.231Z,100.00
